Terminal Aerodrome Forecast
Issued by NWS

Home | Current Version | Previous Version | Text Only | Print | Product List | Glossary On
Versions: 1 2 3 4 5 6 7 8 9 10 11 12 13 14 15 16 17 18 19 20 21 22 23 24
331
FTAK31 PAJN 292338
TAFAYA
TAF
PAYA 292338Z 3000/3024 14010G20KT P6SM VCSH SCT015 BKN040 BKN060
      TEMPO 3000/3004 VRB06KT 4SM -SHRA BKN015 OVC040
     FM300400 09008KT P6SM VCSH BKN040 BKN060
     FM300900 09010G15KT P6SM SCT025 BKN040 OVC060 PROB30 3009/3015
      4SM -RA BR FEW006 BKN025 OVC040
     FM301500 09010G15KT P6SM -RA SCT025 OVC040
     FM302000 08015G25KT 3SM -RA BR FEW006 BKN010 OVC025
      WS020/12050KT
      AMD LTD TO CLD VIS AND WIND 3001/3009=

USA.gov is the U.S. government's official web portal to all federal, state and local government web resources and services.